Time;durP1;ratioP1;P1;durP2;ratioP2;P2;SDS_P1;SDS_P2;PMS_P1;PMS_P2;Temp;Humidity;BMP_temperature;BMP_pressure;BME280_temperature;BME280_humidity;BME280_pressure;Samples;Min_cycle;Max_cycle;Signal;HPM_P1;HPM_P2
2024/04/11 00:00:15;;;;;;;5.47;3.25;;;7.30;95.50;;;;;;5404432;26;20622;-92
2024/04/11 00:02:43;;;;;;;6.78;3.10;;;7.30;95.50;;;;;;5398070;26;20380;-92
2024/04/11 00:05:12;;;;;;;5.05;3.13;;;7.20;95.80;;;;;;5394867;26;20697;-92
2024/04/11 00:07:37;;;;;;;4.75;2.70;;;7.20;95.50;;;;;;5419686;26;20576;-92
2024/04/11 00:10:06;;;;;;;5.72;3.20;;;7.10;95.50;;;;;;5408141;26;20242;-92
2024/04/11 00:12:32;;;;;;;5.63;3.45;;;7.10;95.90;;;;;;5424142;26;20228;-91
2024/04/11 00:15:03;;;;;;;7.55;3.30;;;7.10;95.90;;;;;;5414041;26;20322;-92
2024/04/11 00:17:30;;;;;;;7.93;3.05;;;7.10;96.10;;;;;;5412297;26;20280;-92
2024/04/11 00:19:58;;;;;;;7.15;3.10;;;7.10;96.10;;;;;;5417528;26;20315;-92
2024/04/11 00:22:24;;;;;;;4.18;2.80;;;7.10;95.90;;;;;;5395573;26;20232;-92
2024/04/11 00:24:52;;;;;;;5.05;2.97;;;7.10;95.60;;;;;;5377785;26;20248;-91
2024/04/11 00:27:18;;;;;;;4.80;2.83;;;7.10;95.50;;;;;;5394156;26;20251;-91
2024/04/11 00:29:47;;;;;;;5.18;3.00;;;7.20;95.70;;;;;;5401523;26;20341;-91
2024/04/11 00:32:15;;;;;;;4.32;2.55;;;7.30;95.50;;;;;;5390915;26;20290;-91
2024/04/11 00:34:44;;;;;;;6.57;2.85;;;7.40;95.60;;;;;;5399095;26;20307;-92
2024/04/11 00:37:11;;;;;;;4.07;2.80;;;7.40;95.20;;;;;;5392205;26;20255;-91
2024/04/11 00:39:40;;;;;;;4.95;2.97;;;7.40;95.30;;;;;;5394939;26;20234;-91
2024/04/11 00:42:07;;;;;;;7.15;2.83;;;7.50;95.10;;;;;;5405820;26;20361;-92
2024/04/11 00:44:36;;;;;;;8.20;3.28;;;7.40;95.40;;;;;;5412784;26;20237;-92
2024/04/11 00:47:08;;;;;;;7.95;2.90;;;7.30;95.50;;;;;;5413110;26;20692;-91
2024/04/11 00:49:40;;;;;;;9.70;2.83;;;7.20;95.50;;;;;;5408970;26;20271;-91
2024/04/11 00:52:07;;;;;;;5.65;2.85;;;7.00;95.50;;;;;;5416870;26;20248;-91
2024/04/11 00:54:37;;;;;;;6.10;3.10;;;6.80;96.10;;;;;;5409169;26;20274;-92
2024/04/11 00:57:07;;;;;;;7.30;3.00;;;6.70;96.60;;;;;;5413435;26;20240;-91
2024/04/11 00:59:36;;;;;;;5.22;2.78;;;6.70;97.20;;;;;;5403626;26;20260;-91
2024/04/11 01:02:04;;;;;;;6.85;2.88;;;6.60;97.50;;;;;;5404654;26;20228;-91
2024/04/11 01:04:33;;;;;;;5.68;2.70;;;6.50;97.60;;;;;;5403352;26;20286;-91
2024/04/11 01:07:06;;;;;;;4.78;2.95;;;6.50;97.60;;;;;;5408887;26;20283;-91
2024/04/11 01:09:36;;;;;;;5.65;2.70;;;6.40;97.40;;;;;;5406727;26;20279;-91
2024/04/11 01:12:02;;;;;;;5.30;2.75;;;6.40;97.60;;;;;;5402888;26;20339;-91
2024/04/11 01:14:31;;;;;;;4.55;2.40;;;6.40;97.70;;;;;;5401690;26;20230;-91
2024/04/11 01:16:57;;;;;;;4.35;2.30;;;6.40;97.70;;;;;;5406698;26;20323;-91
2024/04/11 01:19:26;;;;;;;3.53;2.63;;;6.40;97.70;;;;;;5403291;26;20240;-91
2024/04/11 01:21:54;;;;;;;4.65;2.40;;;6.30;97.80;;;;;;5400778;26;20338;-91
2024/04/11 01:24:27;;;;;;;5.07;2.70;;;6.30;97.90;;;;;;5386540;26;20247;-91
2024/04/11 01:26:52;;;;;;;4.30;2.50;;;6.30;97.70;;;;;;5416877;26;20607;-91
2024/04/11 01:29:21;;;;;;;6.03;2.40;;;6.30;97.50;;;;;;5385651;26;20236;-91
2024/04/11 01:31:53;;;;;;;5.90;2.33;;;6.20;97.70;;;;;;5409697;26;20336;-91
2024/04/11 01:34:22;;;;;;;5.85;2.33;;;6.20;97.70;;;;;;5397115;26;20271;-91
2024/04/11 01:36:49;;;;;;;4.82;2.30;;;6.20;97.50;;;;;;5411243;26;20230;-91
2024/04/11 01:39:17;;;;;;;4.50;2.28;;;6.10;97.70;;;;;;5384943;26;20240;-91
2024/04/11 01:41:45;;;;;;;3.60;2.47;;;6.10;97.90;;;;;;5403396;26;20227;-91
2024/04/11 01:44:14;;;;;;;6.15;2.33;;;6.00;98.10;;;;;;5394277;26;20784;-91
2024/04/11 01:46:40;;;;;;;2.78;2.20;;;6.00;98.30;;;;;;5407141;26;20263;-91
2024/04/11 01:49:08;;;;;;;4.78;2.50;;;6.00;98.60;;;;;;5413667;26;20246;-91
2024/04/11 01:51:34;;;;;;;4.43;2.17;;;6.10;98.80;;;;;;5406742;26;20236;-91
2024/04/11 01:54:03;;;;;;;3.42;2.42;;;6.10;98.60;;;;;;5419307;26;20266;-91
2024/04/11 01:56:34;;;;;;;3.92;2.22;;;6.10;98.60;;;;;;5404869;26;20307;-91
2024/04/11 01:59:06;;;;;;;5.30;2.97;;;6.10;98.70;;;;;;5389212;26;20228;-91
2024/04/11 02:01:34;;;;;;;5.63;2.83;;;6.20;98.50;;;;;;5391144;26;20269;-91
2024/04/11 02:04:05;;;;;;;6.90;2.70;;;6.20;98.40;;;;;;5423431;26;20274;-91
2024/04/11 02:06:31;;;;;;;4.43;2.50;;;6.10;98.40;;;;;;5407994;26;20231;-91
2024/04/11 02:09:00;;;;;;;4.23;2.60;;;6.10;98.30;;;;;;5387917;26;20240;-91
2024/04/11 02:11:26;;;;;;;4.70;2.50;;;6.10;98.50;;;;;;5409823;26;20246;-91
2024/04/11 02:13:54;;;;;;;3.53;2.42;;;6.00;98.60;;;;;;5411057;26;20232;-91
2024/04/11 02:16:23;;;;;;;5.00;2.70;;;6.00;98.60;;;;;;5396879;26;20745;-91
2024/04/11 02:18:52;;;;;;;2.90;2.35;;;6.00;98.70;;;;;;5401152;26;20240;-91
2024/04/11 02:21:19;;;;;;;4.43;2.47;;;6.00;98.90;;;;;;5411585;26;20866;-91
2024/04/11 02:23:47;;;;;;;5.67;2.67;;;5.90;98.90;;;;;;5410116;26;20240;-91
2024/04/11 02:26:13;;;;;;;5.93;2.70;;;5.90;99.00;;;;;;5419561;26;20361;-91
2024/04/11 02:28:42;;;;;;;3.92;2.47;;;6.00;99.20;;;;;;5399728;26;20878;-91
2024/04/11 02:31:08;;;;;;;6.23;2.47;;;6.10;98.80;;;;;;5402014;26;20242;-91
2024/04/11 02:33:39;;;;;;;3.93;2.50;;;6.00;98.50;;;;;;5408802;26;20601;-91
2024/04/11 02:36:06;;;;;;;3.97;2.60;;;5.90;98.50;;;;;;5394399;26;20359;-91
2024/04/11 02:38:35;;;;;;;5.27;2.50;;;6.00;98.80;;;;;;5416843;26;20278;-91
2024/04/11 02:41:01;;;;;;;5.60;2.50;;;6.00;98.80;;;;;;5404675;26;20374;-91
2024/04/11 02:43:31;;;;;;;5.63;2.90;;;6.00;98.40;;;;;;5395932;26;20233;-91
2024/04/11 02:45:57;;;;;;;4.60;2.33;;;6.00;98.10;;;;;;5414520;26;20269;-91
2024/04/11 02:48:27;;;;;;;5.10;2.80;;;6.00;98.30;;;;;;5413243;26;20235;-91
2024/04/11 02:50:57;;;;;;;4.37;2.93;;;5.90;98.10;;;;;;5406852;26;20227;-91
2024/04/11 02:53:26;;;;;;;5.80;3.20;;;5.80;98.30;;;;;;5413674;26;20237;-91
2024/04/11 02:55:54;;;;;;;4.40;2.80;;;5.80;98.20;;;;;;5396757;26;20694;-91
2024/04/11 02:58:23;;;;;;;4.40;2.80;;;5.70;98.40;;;;;;5413182;26;20236;-91
2024/04/11 03:00:58;;;;;;;5.87;3.10;;;5.70;98.70;;;;;;5401337;26;20273;-91
2024/04/11 03:03:27;;;;;;;4.17;2.97;;;5.60;99.30;;;;;;5405928;26;20264;-91
2024/04/11 03:06:05;;;;;;;6.90;2.80;;;5.50;99.20;;;;;;5416696;26;20820;-91
2024/04/11 03:08:34;;;;;;;6.00;3.83;;;5.50;99.40;;;;;;5393094;26;20609;-91
2024/04/11 03:11:01;;;;;;;5.67;3.37;;;5.60;99.60;;;;;;5423600;26;20236;-91
2024/04/11 03:13:29;;;;;;;4.87;2.70;;;5.70;99.00;;;;;;5386732;26;20338;-91
2024/04/11 03:15:58;;;;;;;7.13;3.20;;;5.70;98.60;;;;;;5408580;26;20294;-91
2024/04/11 03:18:27;;;;;;;5.87;3.10;;;5.60;98.60;;;;;;5402951;26;20244;-88
2024/04/11 03:20:57;;;;;;;4.87;3.43;;;5.50;98.80;;;;;;5422766;26;20242;-90
2024/04/11 03:23:26;;;;;;;4.77;3.33;;;5.50;99.30;;;;;;5396967;26;20272;-91
2024/04/11 03:25:52;;;;;;;6.63;3.50;;;5.50;99.30;;;;;;5396420;26;20805;-90
2024/04/11 03:28:22;;;;;;;6.63;3.63;;;5.60;99.30;;;;;;5391887;26;20445;-90
2024/04/11 03:31:00;;;;;;;5.13;3.80;;;5.60;99.10;;;;;;5412463;26;20419;-90
2024/04/11 03:33:29;;;;;;;5.60;3.10;;;5.50;98.90;;;;;;5398019;26;20277;-90
2024/04/11 03:36:00;;;;;;;4.23;3.10;;;5.40;98.90;;;;;;5391475;26;20784;-90
2024/04/11 03:38:31;;;;;;;7.70;3.10;;;5.40;99.20;;;;;;5417187;26;20240;-90
2024/04/11 03:40:58;;;;;;;3.80;2.80;;;5.30;99.30;;;;;;5384507;26;20279;-90
2024/04/11 03:43:27;;;;;;;4.83;2.60;;;5.20;99.80;;;;;;5383779;26;20233;-90
2024/04/11 03:45:57;;;;;;;4.03;2.70;;;5.20;99.90;;;;;;5419844;26;20228;-90
2024/04/11 03:48:26;;;;;;;5.43;2.97;;;5.20;99.90;;;;;;5409735;26;20236;-90
2024/04/11 03:50:51;;;;;;;5.27;3.27;;;5.10;99.90;;;;;;5397085;26;20323;-90
2024/04/11 03:53:23;;;;;;;3.73;2.90;;;5.00;99.90;;;;;;5401190;26;20326;-90
2024/04/11 03:55:49;;;;;;;4.03;2.83;;;5.00;99.90;;;;;;5393881;26;20266;-90
2024/04/11 03:58:17;;;;;;;4.23;2.73;;;4.90;99.90;;;;;;5385767;26;20227;-90
2024/04/11 04:00:45;;;;;;;6.17;3.43;;;4.90;99.90;;;;;;5390079;26;20546;-90
2024/04/11 04:03:13;;;;;;;4.73;2.83;;;4.90;99.90;;;;;;5414680;26;20246;-88
2024/04/11 04:05:40;;;;;;;3.70;2.50;;;4.90;99.90;;;;;;5407892;26;20233;-88
2024/04/11 04:08:09;;;;;;;5.23;2.80;;;4.90;99.90;;;;;;5398773;26;20227;-90
2024/04/11 04:10:38;;;;;;;3.33;2.80;;;4.90;99.90;;;;;;5402334;26;20328;-90
2024/04/11 04:13:09;;;;;;;4.63;2.80;;;4.90;99.90;;;;;;5405970;26;20685;-90
2024/04/11 04:15:35;;;;;;;8.27;2.60;;;4.90;99.90;;;;;;5407572;26;20228;-90
2024/04/11 04:18:04;;;;;;;5.57;2.60;;;5.00;99.90;;;;;;5399346;26;20291;-90
2024/04/11 04:20:32;;;;;;;5.17;2.80;;;5.20;99.90;;;;;;5407595;26;20231;-88
2024/04/11 04:23:10;;;;;;;6.87;2.90;;;5.10;99.90;;;;;;5388469;26;20340;-90
2024/04/11 04:25:39;;;;;;;8.33;2.97;;;5.10;99.90;;;;;;5390771;26;20229;-90
2024/04/11 04:28:08;;;;;;;5.93;2.90;;;5.10;99.90;;;;;;5405337;26;20662;-90
2024/04/11 04:30:34;;;;;;;6.27;2.63;;;5.10;99.90;;;;;;5404460;26;20236;-90
2024/04/11 04:33:04;;;;;;;4.47;2.57;;;5.20;99.30;;;;;;5407161;26;20244;-90
2024/04/11 04:35:30;;;;;;;7.57;2.83;;;5.10;99.20;;;;;;5399225;26;20832;-90
2024/04/11 04:37:59;;;;;;;5.97;2.63;;;5.00;99.40;;;;;;5391089;26;20232;-90
2024/04/11 04:40:25;;;;;;;5.53;2.60;;;4.90;99.70;;;;;;5389703;26;20236;-90
2024/04/11 04:42:56;;;;;;;6.40;2.40;;;4.90;99.90;;;;;;5400554;26;20236;-90
2024/04/11 04:45:22;;;;;;;6.63;3.00;;;4.80;99.90;;;;;;5415399;26;20286;-90
2024/04/11 04:47:52;;;;;;;8.20;2.63;;;4.90;99.90;;;;;;5396539;26;20365;-90
2024/04/11 04:50:18;;;;;;;6.93;2.80;;;4.90;99.90;;;;;;5399815;26;20244;-91
2024/04/11 04:52:48;;;;;;;7.03;3.00;;;4.90;99.90;;;;;;5407474;26;20281;-90
2024/04/11 04:55:17;;;;;;;4.53;2.63;;;4.90;99.90;;;;;;5417967;26;20262;-91
2024/04/11 04:57:46;;;;;;;4.47;3.00;;;5.00;99.90;;;;;;5397308;26;20236;-91
2024/04/11 05:00:15;;;;;;;5.10;3.07;;;5.00;99.90;;;;;;5412626;26;20350;-91
2024/04/11 05:02:45;;;;;;;5.87;3.13;;;5.10;99.90;;;;;;5408171;26;20830;-88
2024/04/11 05:05:11;;;;;;;7.90;3.20;;;5.10;99.90;;;;;;5399128;26;20233;-91
2024/04/11 05:07:40;;;;;;;5.50;3.10;;;5.20;99.90;;;;;;5418415;26;20275;-90
2024/04/11 05:10:06;;;;;;;3.93;2.90;;;5.20;99.90;;;;;;5390632;26;20263;-90
2024/04/11 05:12:43;;;;;;;5.33;2.83;;;5.30;99.90;;;;;;5402248;26;20237;-90
2024/04/11 05:15:12;;;;;;;5.50;2.60;;;5.30;99.90;;;;;;5400912;26;20234;-91
2024/04/11 05:17:43;;;;;;;4.47;2.70;;;5.40;99.90;;;;;;5394197;26;20279;-91
2024/04/11 05:20:17;;;;;;;5.67;3.50;;;5.60;99.90;;;;;;5394231;26;20266;-90
2024/04/11 05:22:49;;;;;;;4.47;2.67;;;5.80;99.20;;;;;;5386858;26;20240;-91
2024/04/11 05:25:17;;;;;;;5.07;2.70;;;6.00;98.50;;;;;;5412949;26;20339;-91
2024/04/11 05:27:46;;;;;;;6.70;3.23;;;6.10;97.90;;;;;;5396249;26;20251;-91
2024/04/11 05:30:12;;;;;;;6.90;2.70;;;6.20;97.60;;;;;;5405338;26;20251;-91
2024/04/11 05:32:46;;;;;;;6.27;2.87;;;6.20;97.60;;;;;;5399836;26;20274;-91
2024/04/11 05:35:14;;;;;;;5.70;2.88;;;6.20;97.90;;;;;;5396412;26;20251;-91
2024/04/11 05:37:44;;;;;;;8.10;3.20;;;6.20;98.10;;;;;;5404596;26;20237;-91
2024/04/11 05:40:12;;;;;;;5.38;2.65;;;6.30;98.40;;;;;;5414261;26;20236;-91
2024/04/11 05:42:44;;;;;;;6.10;2.70;;;6.40;98.40;;;;;;5429445;26;20235;-91
2024/04/11 05:45:11;;;;;;;4.55;2.75;;;6.40;98.40;;;;;;5408038;26;20270;-91
2024/04/11 05:47:41;;;;;;;8.27;2.42;;;6.70;98.00;;;;;;5417092;26;20374;-91
2024/04/11 05:50:09;;;;;;;6.55;3.13;;;6.80;97.30;;;;;;5416989;26;20239;-91
2024/04/11 05:52:38;;;;;;;6.75;2.75;;;7.00;97.10;;;;;;5412206;26;20228;-91
2024/04/11 05:55:04;;;;;;;6.13;3.30;;;7.00;97.20;;;;;;5419663;26;20295;-91
2024/04/11 05:57:33;;;;;;;7.47;3.60;;;7.10;97.30;;;;;;5399926;26;20233;-91
2024/04/11 05:59:59;;;;;;;6.53;3.85;;;7.20;96.70;;;;;;5397602;26;20247;-91
2024/04/11 06:02:34;;;;;;;7.82;4.60;;;7.30;96.20;;;;;;5405564;26;20334;-91
2024/04/11 06:05:01;;;;;;;9.30;3.85;;;7.40;95.70;;;;;;5420714;26;20295;-91
2024/04/11 06:07:32;;;;;;;14.40;4.90;;;7.40;95.60;;;;;;5410153;26;20231;-91
2024/04/11 06:10:04;;;;;;;7.50;4.68;;;7.60;95.60;;;;;;5397825;26;20279;-91
2024/04/11 06:12:33;;;;;;;9.57;4.28;;;7.60;95.60;;;;;;5399304;26;20236;-91
2024/04/11 06:14:59;;;;;;;7.28;4.20;;;7.70;95.00;;;;;;5402985;26;20333;-91
2024/04/11 06:17:28;;;;;;;15.77;5.07;;;7.90;95.20;;;;;;5398939;26;20295;-91
2024/04/11 06:19:55;;;;;;;9.02;4.55;;;8.10;94.40;;;;;;5424279;26;20271;-91
2024/04/11 06:22:26;;;;;;;7.88;4.82;;;8.50;93.60;;;;;;5406084;26;20244;-91
2024/04/11 06:24:55;;;;;;;11.68;5.35;;;8.70;93.10;;;;;;5393320;26;20254;-91
2024/04/11 06:27:26;;;;;;;11.80;5.45;;;8.90;92.50;;;;;;5403134;26;21002;-91
2024/04/11 06:29:52;;;;;;;10.27;5.50;;;9.20;91.80;;;;;;5417667;26;20231;-91
2024/04/11 06:32:21;;;;;;;6.57;4.90;;;9.20;91.90;;;;;;5421485;26;20271;-91
2024/04/11 06:34:52;;;;;;;13.40;5.53;;;9.50;91.90;;;;;;5413296;26;20247;-91
2024/04/11 06:37:22;;;;;;;8.13;5.55;;;9.90;90.60;;;;;;5404516;26;21186;-91
2024/04/11 06:39:49;;;;;;;8.57;5.82;;;10.00;89.10;;;;;;5400894;26;20331;-91
2024/04/11 06:42:21;;;;;;;8.05;5.75;;;9.90;90.60;;;;;;5402572;26;20735;-91
2024/04/11 06:44:48;;;;;;;7.57;5.65;;;9.90;90.00;;;;;;5404973;26;20331;-91
2024/04/11 06:47:18;;;;;;;10.52;5.85;;;9.90;90.10;;;;;;5398806;26;20296;-91
2024/04/11 06:49:46;;;;;;;9.57;5.70;;;10.20;86.40;;;;;;5407228;26;20290;-91
2024/04/11 06:52:22;;;;;;;8.25;5.20;;;10.50;83.90;;;;;;5409776;26;20242;-91
2024/04/11 06:54:51;;;;;;;12.52;5.10;;;10.70;81.60;;;;;;5388505;26;20732;-91
2024/04/11 06:57:24;;;;;;;10.10;5.43;;;11.20;79.50;;;;;;5406434;26;20229;-91
2024/04/11 06:59:51;;;;;;;8.45;5.03;;;11.30;78.50;;;;;;5398183;26;20701;-92
2024/04/11 07:02:24;;;;;;;10.88;5.50;;;11.50;74.70;;;;;;5407740;26;20242;-91
2024/04/11 07:05:16;;;;;;;10.85;5.20;;;11.40;74.60;;;;;;5419801;26;20263;-91
2024/04/11 07:07:45;;;;;;;14.55;5.13;;;11.20;74.30;;;;;;5383492;26;20282;-91
2024/04/11 07:10:15;;;;;;;9.10;5.43;;;11.20;75.90;;;;;;5409483;26;20782;-91
2024/04/11 07:12:53;;;;;;;9.73;5.28;;;11.20;74.30;;;;;;5390713;26;20247;-91
2024/04/11 07:15:19;;;;;;;9.77;5.50;;;11.10;76.70;;;;;;5403238;26;20429;-91
2024/04/11 07:17:56;;;;;;;9.23;5.18;;;11.00;78.00;;;;;;5398774;26;20270;-91
2024/04/11 07:20:25;;;;;;;11.07;5.35;;;11.20;76.10;;;;;;5416541;26;20232;-91
2024/04/11 07:22:55;;;;;;;7.88;4.70;;;11.30;74.40;;;;;;5401613;26;20279;-92
2024/04/11 07:25:21;;;;;;;13.27;5.10;;;11.50;74.70;;;;;;5394336;26;20562;-91
2024/04/11 07:27:55;;;;;;;12.65;5.40;;;11.50;72.80;;;;;;5416396;26;20236;-92
2024/04/11 07:30:23;;;;;;;8.25;4.30;;;11.40;74.60;;;;;;5394399;26;20248;-92
2024/04/11 07:32:54;;;;;;;8.90;4.78;;;11.60;71.60;;;;;;5401068;26;20231;-92
2024/04/11 07:35:20;;;;;;;6.20;3.85;;;12.00;75.10;;;;;;5408109;26;20270;-91
2024/04/11 07:37:49;;;;;;;10.25;4.28;;;12.20;60.70;;;;;;5414628;26;20316;-92
2024/04/11 07:40:27;;;;;;;9.70;4.35;;;12.30;59.20;;;;;;5414438;26;20565;-91
2024/04/11 07:43:06;;;;;;;8.40;4.43;;;12.30;57.00;;;;;;5387891;26;20240;-92
2024/04/11 07:45:35;;;;;;;8.43;3.75;;;12.20;57.50;;;;;;5405874;26;20335;-92
2024/04/11 07:48:04;;;;;;;8.32;3.80;;;12.30;52.60;;;;;;5409068;26;20325;-92
2024/04/11 07:50:32;;;;;;;4.97;3.15;;;12.30;51.60;;;;;;5414609;26;20270;-91
2024/04/11 07:53:02;;;;;;;6.07;3.45;;;12.40;47.80;;;;;;5391897;26;20712;-91
2024/04/11 07:55:28;;;;;;;5.93;3.70;;;12.50;43.30;;;;;;5390734;26;20232;-91
2024/04/11 07:58:05;;;;;;;8.18;3.40;;;12.70;42.50;;;;;;5406605;26;20269;-92
2024/04/11 08:00:38;;;;;;;8.65;4.18;;;12.90;41.20;;;;;;5413401;26;20573;-92
2024/04/11 08:03:08;;;;;;;7.38;3.85;;;12.80;41.80;;;;;;5383486;26;20282;-92
2024/04/11 08:05:35;;;;;;;5.35;3.97;;;12.90;42.80;;;;;;5396389;26;20333;-92
2024/04/11 08:08:07;;;;;;;6.43;4.25;;;12.90;40.90;;;;;;5385975;26;20224;-92
2024/04/11 08:10:35;;;;;;;8.55;4.07;;;13.10;39.90;;;;;;5384175;26;20283;-92
2024/04/11 08:13:08;;;;;;;6.97;4.22;;;13.10;40.50;;;;;;5398269;26;20235;-91
2024/04/11 08:15:34;;;;;;;7.03;4.10;;;13.00;40.30;;;;;;5411466;26;20232;-91
2024/04/11 08:18:06;;;;;;;7.13;4.20;;;13.00;41.30;;;;;;5391002;26;20276;-92
2024/04/11 08:20:34;;;;;;;7.10;4.82;;;12.90;43.50;;;;;;5398931;26;20232;-91
2024/04/11 08:23:04;;;;;;;7.38;5.22;;;12.90;45.00;;;;;;5415309;26;20233;-92
2024/04/11 08:25:30;;;;;;;8.45;5.45;;;13.10;41.70;;;;;;5395096;26;21220;-92
2024/04/11 08:28:00;;;;;;;12.15;5.55;;;13.20;40.70;;;;;;5400578;26;20238;-91
2024/04/11 08:30:35;;;;;;;11.52;8.02;;;13.40;39.30;;;;;;5410547;26;20240;-92
2024/04/11 08:33:09;;;;;;;10.43;7.00;;;13.20;39.20;;;;;;5407409;26;20236;-92
2024/04/11 08:35:36;;;;;;;7.63;5.88;;;13.40;39.30;;;;;;5391698;26;20255;-92
2024/04/11 08:38:11;;;;;;;7.95;5.18;;;13.50;37.80;;;;;;5417568;26;20278;-92
2024/04/11 08:40:39;;;;;;;9.55;6.78;;;13.60;37.80;;;;;;5414639;26;20234;-92
2024/04/11 08:43:09;;;;;;;13.73;6.75;;;13.50;39.50;;;;;;5407160;26;20248;-92
2024/04/11 08:45:42;;;;;;;7.28;6.57;;;13.40;40.20;;;;;;5406937;26;20285;-92
2024/04/11 08:48:13;;;;;;;7.63;5.75;;;13.70;36.30;;;;;;5402214;26;20228;-92
2024/04/11 08:50:44;;;;;;;11.15;6.20;;;13.50;39.50;;;;;;5403458;26;20278;-92
2024/04/11 08:53:13;;;;;;;7.35;5.70;;;13.40;42.10;;;;;;5393364;26;20271;-92
2024/04/11 08:55:40;;;;;;;7.97;5.35;;;13.60;37.00;;;;;;5394963;26;20571;-92
2024/04/11 08:58:10;;;;;;;8.10;5.75;;;13.80;36.00;;;;;;5407377;26;20282;-92
2024/04/11 09:00:41;;;;;;;7.88;5.13;;;14.10;33.00;;;;;;5413065;26;20299;-92
2024/04/11 09:03:15;;;;;;;9.13;5.30;;;14.50;31.70;;;;;;5420753;26;20574;-92
2024/04/11 09:05:42;;;;;;;6.53;4.78;;;14.50;30.30;;;;;;5411328;26;20271;-91
2024/04/11 09:08:13;;;;;;;6.28;4.55;;;14.60;32.20;;;;;;5415802;26;20717;-92
2024/04/11 09:10:40;;;;;;;6.13;4.25;;;14.80;31.50;;;;;;5405860;26;20239;-91
2024/04/11 09:13:09;;;;;;;4.80;4.30;;;15.10;27.90;;;;;;5401417;26;20947;-92
2024/04/11 09:15:35;;;;;;;6.20;4.85;;;15.20;28.00;;;;;;5418608;26;20282;-92
2024/04/11 09:18:07;;;;;;;8.75;4.55;;;16.50;27.30;;;;;;5414259;26;20265;-92
2024/04/11 09:20:34;;;;;;;5.72;4.55;;;17.50;20.50;;;;;;5408587;26;20236;-92
2024/04/11 09:23:03;;;;;;;7.45;4.20;;;17.90;18.40;;;;;;5400469;26;20225;-91
2024/04/11 09:25:30;;;;;;;6.03;4.30;;;17.30;18.80;;;;;;5389861;26;20236;-91
2024/04/11 09:28:01;;;;;;;7.97;4.60;;;16.70;19.40;;;;;;5400785;26;20232;-92
2024/04/11 09:30:29;;;;;;;6.82;4.95;;;16.20;21.90;;;;;;5416313;26;20837;-92
2024/04/11 09:33:04;;;;;;;7.07;5.10;;;16.50;22.40;;;;;;5404568;26;20239;-93
2024/04/11 09:35:40;;;;;;;6.80;4.32;;;16.80;20.00;;;;;;5433212;26;20303;-92
2024/04/11 09:38:12;;;;;;;6.68;4.90;;;16.50;21.20;;;;;;5404629;26;20266;-92
2024/04/11 09:40:43;;;;;;;5.13;4.63;;;16.00;21.30;;;;;;5400923;26;20232;-91
2024/04/11 09:43:15;;;;;;;7.68;5.30;;;15.70;24.60;;;;;;5416875;26;20266;-93
2024/04/11 09:45:50;;;;;;;8.38;5.22;;;15.30;23.70;;;;;;5391193;26;20279;-92
2024/04/11 09:48:21;;;;;;;7.53;5.40;;;15.10;25.90;;;;;;5392816;26;20280;-92
2024/04/11 09:50:54;;;;;;;6.80;4.78;;;15.50;25.10;;;;;;5416940;26;20236;-91
2024/04/11 09:53:36;;;;;;;6.90;5.07;;;16.40;20.70;;;;;;5402708;26;20340;-92
2024/04/11 09:56:05;;;;;;;11.38;5.20;;;16.70;20.90;;;;;;5405765;26;20337;-92
2024/04/11 09:58:38;;;;;;;4.75;4.05;;;16.70;19.60;;;;;;5393970;26;20292;-92
2024/04/11 10:01:20;;;;;;;6.55;5.47;;;16.60;19.30;;;;;;5404168;26;20243;-91
2024/04/11 10:03:49;;;;;;;5.72;4.78;;;16.00;21.20;;;;;;5398415;26;20969;-92
2024/04/11 10:06:20;;;;;;;8.77;5.15;;;15.80;23.70;;;;;;5398022;26;20316;-92
2024/04/11 10:08:50;;;;;;;8.00;5.25;;;16.30;20.70;;;;;;5405153;26;20331;-91
2024/04/11 10:11:17;;;;;;;6.78;5.10;;;16.30;22.30;;;;;;5400954;26;20294;-91
2024/04/11 10:13:49;;;;;;;7.63;5.13;;;16.40;22.30;;;;;;5415713;26;20332;-92
2024/04/11 10:16:21;;;;;;;5.15;4.55;;;16.20;22.20;;;;;;5390639;26;20244;-92
2024/04/11 10:19:04;;;;;;;8.25;4.97;;;16.20;20.60;;;;;;5403651;26;20232;-92
2024/04/11 10:21:33;;;;;;;8.35;5.07;;;16.10;20.80;;;;;;5427970;26;20234;-92
2024/04/11 10:24:14;;;;;;;5.75;4.68;;;15.90;23.20;;;;;;5401322;26;20271;-92
2024/04/11 10:26:44;;;;;;;7.05;5.28;;;16.00;22.90;;;;;;5399863;26;20231;-93
2024/04/11 10:29:18;;;;;;;7.05;5.13;;;15.80;23.80;;;;;;5416239;26;20238;-92
2024/04/11 10:31:44;;;;;;;8.13;4.57;;;15.70;23.30;;;;;;5414928;26;20311;-93
2024/04/11 10:34:19;;;;;;;7.30;4.53;;;16.40;24.50;;;;;;5411527;26;20270;-93
2024/04/11 10:36:54;;;;;;;7.50;5.07;;;17.50;19.20;;;;;;5421724;26;20313;-93
2024/04/11 10:39:24;;;;;;;7.28;5.28;;;17.90;18.90;;;;;;5411388;26;20228;-92
2024/04/11 10:41:51;;;;;;;5.75;5.18;;;17.50;18.20;;;;;;5422291;26;20271;-92
2024/04/11 10:44:20;;;;;;;7.35;4.90;;;17.10;19.40;;;;;;5391543;26;21113;-92
2024/04/11 10:46:46;;;;;;;8.00;6.30;;;16.90;19.80;;;;;;5403284;26;20302;-92
2024/04/11 10:49:26;;;;;;;10.70;7.30;;;17.50;20.00;;;;;;5415059;26;20303;-92
2024/04/11 10:51:58;;;;;;;7.72;6.63;;;17.90;20.40;;;;;;5399955;26;20234;-92
2024/04/11 10:54:30;;;;;;;6.10;4.80;;;18.00;19.60;;;;;;5420483;26;20237;-93
2024/04/11 10:56:57;;;;;;;9.13;4.97;;;18.00;19.90;;;;;;5392490;26;20230;-92
2024/04/11 10:59:27;;;;;;;7.63;4.78;;;17.80;19.80;;;;;;5411372;26;20329;-92
2024/04/11 11:02:00;;;;;;;6.97;4.32;;;18.20;15.90;;;;;;5418056;26;20234;-92
2024/04/11 11:04:30;;;;;;;5.70;4.50;;;18.00;16.10;;;;;;5410193;26;21095;-91
2024/04/11 11:07:09;;;;;;;5.78;4.90;;;17.80;16.40;;;;;;5414346;26;20306;-91
2024/04/11 11:09:42;;;;;;;7.13;4.20;;;17.20;18.50;;;;;;5413563;26;20231;-92
2024/04/11 11:12:11;;;;;;;6.72;4.80;;;16.90;18.60;;;;;;5395416;26;20802;-92
2024/04/11 11:14:40;;;;;;;6.63;5.03;;;17.00;18.40;;;;;;5440875;26;20276;-91
2024/04/11 11:17:07;;;;;;;7.13;5.05;;;16.80;21.00;;;;;;5391751;26;20295;-91
2024/04/11 11:19:37;;;;;;;7.78;5.00;;;16.70;19.40;;;;;;5451705;26;20230;-91
2024/04/11 11:22:06;;;;;;;5.72;4.80;;;17.00;18.40;;;;;;5402374;26;20337;-92
2024/04/11 11:24:34;;;;;;;5.93;5.18;;;16.80;19.80;;;;;;5399277;26;20228;-92
2024/04/11 11:27:01;;;;;;;5.65;4.43;;;16.50;20.00;;;;;;5405663;26;20358;-91
2024/04/11 11:29:31;;;;;;;5.38;4.30;;;16.60;20.20;;;;;;5413134;26;20231;-92
2024/04/11 11:32:01;;;;;;;7.22;4.68;;;16.70;19.70;;;;;;5429133;26;20366;-92
2024/04/11 11:34:31;;;;;;;5.43;4.82;;;16.50;19.70;;;;;;5403236;26;20410;-92
2024/04/11 11:37:00;;;;;;;6.00;4.63;;;16.30;19.20;;;;;;5428035;26;20591;-92
2024/04/11 11:39:33;;;;;;;7.78;4.45;;;16.30;20.90;;;;;;5410602;26;20241;-92
2024/04/11 11:42:08;;;;;;;8.32;4.60;;;16.60;20.20;;;;;;5409911;26;20310;-91
2024/04/11 11:45:05;;;;;;;7.63;4.32;;;16.60;19.50;;;;;;5400084;26;20270;-92
2024/04/11 11:47:33;;;;;;;6.88;4.43;;;16.40;20.40;;;;;;5401965;26;20263;-92
2024/04/11 11:50:07;;;;;;;4.80;4.28;;;16.40;20.00;;;;;;5386054;26;20240;-91
2024/04/11 11:52:34;;;;;;;6.32;4.55;;;16.70;21.20;;;;;;5399674;26;20255;-92
2024/04/11 11:55:06;;;;;;;6.13;4.07;;;16.90;20.00;;;;;;5418365;26;20273;-92
2024/04/11 11:57:39;;;;;;;6.32;4.35;;;16.90;18.50;;;;;;5403758;26;20235;-92
2024/04/11 12:00:19;;;;;;;5.45;4.47;;;16.90;18.30;;;;;;5409899;26;20269;-92
2024/04/11 12:02:50;;;;;;;6.60;4.43;;;17.00;18.30;;;;;;5402067;26;20366;-91
2024/04/11 12:05:23;;;;;;;7.65;4.85;;;16.70;19.10;;;;;;5399191;26;20240;-92
2024/04/11 12:07:50;;;;;;;5.15;3.50;;;16.60;18.10;;;;;;5418431;26;20232;-92
2024/04/11 12:10:29;;;;;;;5.90;4.10;;;16.70;19.00;;;;;;5404465;26;20247;-93
2024/04/11 12:13:09;;;;;;;8.50;4.30;;;16.90;18.70;;;;;;5407706;26;20238;-92
2024/04/11 12:15:38;;;;;;;4.25;3.75;;;16.70;19.20;;;;;;5424307;26;20333;-92
2024/04/11 12:18:11;;;;;;;5.70;4.28;;;16.60;19.00;;;;;;5404450;26;20303;-92
2024/04/11 12:20:40;;;;;;;4.75;4.13;;;16.50;18.90;;;;;;5408465;26;20244;-92
2024/04/11 12:23:06;;;;;;;5.70;4.35;;;16.50;19.20;;;;;;5400427;26;20235;-92
2024/04/11 12:25:38;;;;;;;7.22;4.57;;;16.20;19.30;;;;;;5402178;26;20274;-92
2024/04/11 12:28:04;;;;;;;5.60;4.57;;;16.30;19.40;;;;;;5409847;26;20275;-92
2024/04/11 12:30:33;;;;;;;5.70;4.15;;;16.60;19.40;;;;;;5398264;26;20756;-91
2024/04/11 12:33:00;;;;;;;5.50;3.90;;;16.70;18.30;;;;;;5399648;26;20340;-91
2024/04/11 12:35:41;;;;;;;5.38;4.00;;;16.80;18.20;;;;;;5393184;26;20596;-92
2024/04/11 12:38:07;;;;;;;6.93;4.43;;;16.50;19.60;;;;;;5391702;26;20278;-93
2024/04/11 12:40:39;;;;;;;7.03;4.00;;;16.20;20.80;;;;;;5418848;26;20251;-92
2024/04/11 12:43:05;;;;;;;4.57;4.10;;;16.00;20.00;;;;;;5410024;26;20290;-92
2024/04/11 12:45:39;;;;;;;5.70;4.35;;;16.00;20.00;;;;;;5403107;26;20268;-92
2024/04/11 12:48:07;;;;;;;5.13;3.80;;;16.10;20.00;;;;;;5392522;26;20278;-91
2024/04/11 12:50:42;;;;;;;4.35;3.85;;;16.20;20.00;;;;;;5421024;26;20244;-92
2024/04/11 12:53:10;;;;;;;7.05;4.15;;;16.10;19.70;;;;;;5425266;26;20246;-91
2024/04/11 12:55:43;;;;;;;5.20;3.90;;;16.10;19.80;;;;;;5416593;26;20232;-92
2024/04/11 12:58:14;;;;;;;5.72;4.15;;;16.40;19.60;;;;;;5403271;26;20271;-92
2024/04/11 13:00:57;;;;;;;5.80;4.40;;;16.50;21.60;;;;;;5408398;26;20244;-91
2024/04/11 13:03:35;;;;;;;5.22;4.13;;;16.60;20.40;;;;;;5425544;26;20363;-91